Time,TemperatureF,DewpointF,PressureIn,WindDirection,WindDirectionDegrees,WindSpeedMPH,WindSpeedGustMPH,Humidity,HourlyPrecipIn,Conditions,Clouds,dailyrainin,SolarRadiationWatts/m^2,SoftwareType,DateUTC
2013-07-15 00:01:00,67.2,65.1,30.17,West,281,0.0,0.0,93,0.00,,,0.00,0.0,WeatherDisplay:10.37,2013-07-15 04:01:00,
2013-07-15 00:02:00,67.1,65.0,30.17,West,281,0.0,0.0,93,0.00,,,0.00,0.0,WeatherDisplay:10.37,2013-07-15 04:02:00,
2013-07-15 00:03:00,67.1,65.0,30.17,West,281,0.0,0.0,93,0.00,,,0.00,0.0,WeatherDisplay:10.37,2013-07-15 04:03:00,
2013-07-15 00:05:00,67.0,64.9,30.17,West,281,0.0,0.0,93,0.00,,,0.00,0.0,WeatherDisplay:10.37,2013-07-15 04:05:00,
2013-07-15 00:10:00,66.9,64.8,30.17,West,281,0.0,0.0,93,0.00,,,0.00,0.0,WeatherDisplay:10.37,2013-07-15 04:10:00,
2013-07-15 00:15:00,66.8,64.7,30.17,West,281,0.0,0.0,93,0.00,,,0.00,0.0,WeatherDisplay:10.37,2013-07-15 04:15:00,
2013-07-15 00:20:00,66.7,64.6,30.17,West,281,0.0,0.0,93,0.00,,,0.00,0.0,WeatherDisplay:10.37,2013-07-15 04:20:00,
2013-07-15 00:25:00,66.5,64.4,30.17,West,281,0.0,0.0,93,0.00,,,0.00,0.0,WeatherDisplay:10.37,2013-07-15 04:25:00,
2013-07-15 00:30:00,66.4,64.3,30.16,West,281,0.0,0.0,93,0.00,,,0.00,0.0,WeatherDisplay:10.37,2013-07-15 04:30:00,
2013-07-15 00:35:00,66.3,64.2,30.16,West,281,0.0,0.0,93,0.00,,,0.00,0.0,WeatherDisplay:10.37,2013-07-15 04:35:00,
2013-07-15 00:40:00,66.3,64.2,30.16,West,281,0.0,0.0,93,0.00,,,0.00,0.0,WeatherDisplay:10.37,2013-07-15 04:40:00,
2013-07-15 00:45:00,66.2,64.4,30.16,West,281,0.0,0.0,94,0.00,,,0.00,0.0,WeatherDisplay:10.37,2013-07-15 04:45:00,
2013-07-15 00:50:00,66.1,64.3,30.16,West,281,0.0,0.0,94,0.00,,,0.00,0.0,WeatherDisplay:10.37,2013-07-15 04:50:00,
2013-07-15 00:55:00,66.1,64.3,30.16,West,281,0.0,0.0,94,0.00,,,0.00,0.0,WeatherDisplay:10.37,2013-07-15 04:55:00,
2013-07-15 01:00:00,66.0,64.2,30.16,West,281,0.0,0.0,94,0.00,,,0.00,0.0,WeatherDisplay:10.37,2013-07-15 05:00:00,
2013-07-15 01:05:00,65.9,64.1,30.16,West,281,0.0,0.0,94,0.00,,,0.00,0.0,WeatherDisplay:10.37,2013-07-15 05:05:00,
2013-07-15 01:10:00,65.8,64.0,30.16,West,281,0.0,0.0,94,0.00,,,0.00,0.0,WeatherDisplay:10.37,2013-07-15 05:10:00,
2013-07-15 01:15:00,65.8,64.0,30.16,West,281,0.0,0.0,94,0.00,,,0.00,0.0,WeatherDisplay:10.37,2013-07-15 05:15:00,
2013-07-15 01:20:00,65.7,63.9,30.16,West,281,0.0,0.0,94,0.00,,,0.00,0.0,WeatherDisplay:10.37,2013-07-15 05:20:00,
2013-07-15 01:25:00,65.6,63.8,30.16,West,281,0.0,0.0,94,0.00,,,0.00,0.0,WeatherDisplay:10.37,2013-07-15 05:25:00,
2013-07-15 01:30:00,65.5,63.7,30.16,West,281,0.0,0.0,94,0.00,,,0.00,0.0,WeatherDisplay:10.37,2013-07-15 05:30:00,
2013-07-15 01:35:00,65.5,64.0,30.16,West,281,0.0,0.0,95,0.00,,,0.00,0.0,WeatherDisplay:10.37,2013-07-15 05:35:00,
2013-07-15 01:40:00,65.4,63.9,30.16,West,281,0.0,0.0,95,0.00,,,0.00,0.0,WeatherDisplay:10.37,2013-07-15 05:40:00,
2013-07-15 01:45:00,65.4,63.9,30.16,West,281,0.0,0.0,95,0.00,,,0.00,0.0,WeatherDisplay:10.37,2013-07-15 05:45:00,
2013-07-15 01:50:00,65.4,63.9,30.15,West,281,0.0,0.0,95,0.00,,,0.00,0.0,WeatherDisplay:10.37,2013-07-15 05:50:00,
2013-07-15 01:55:00,65.3,63.8,30.16,West,281,0.0,0.0,95,0.00,,,0.00,0.0,WeatherDisplay:10.37,2013-07-15 05:55:00,
2013-07-15 02:00:00,65.2,63.7,30.16,West,281,0.0,0.0,95,0.00,,,0.00,0.0,WeatherDisplay:10.37,2013-07-15 06:00:00,
2013-07-15 02:05:00,65.2,63.7,30.15,West,281,0.0,0.0,95,0.00,,,0.00,0.0,WeatherDisplay:10.37,2013-07-15 06:05:00,
2013-07-15 02:10:00,65.2,63.7,30.15,West,281,0.0,0.0,95,0.00,,,0.00,0.0,WeatherDisplay:10.37,2013-07-15 06:10:00,
2013-07-15 02:15:00,65.2,63.7,30.15,West,281,0.0,0.0,95,0.00,,,0.00,0.0,WeatherDisplay:10.37,2013-07-15 06:15:00,
2013-07-15 02:20:00,65.1,63.6,30.16,West,281,0.0,0.0,95,0.00,,,0.00,0.0,WeatherDisplay:10.37,2013-07-15 06:20:00,
2013-07-15 02:25:00,65.0,63.5,30.16,West,281,0.0,0.0,95,0.00,,,0.00,0.0,WeatherDisplay:10.37,2013-07-15 06:25:00,
2013-07-15 02:30:00,64.9,63.4,30.16,West,281,0.0,0.0,95,0.00,,,0.00,0.0,WeatherDisplay:10.37,2013-07-15 06:30:00,
2013-07-15 02:35:00,64.8,63.3,30.16,West,281,0.0,0.0,95,0.00,,,0.00,0.0,WeatherDisplay:10.37,2013-07-15 06:35:00,
2013-07-15 02:40:00,64.7,63.2,30.16,West,281,0.0,0.0,95,0.00,,,0.00,0.0,WeatherDisplay:10.37,2013-07-15 06:40:00,
2013-07-15 02:45:00,64.7,63.2,30.16,West,281,0.0,0.0,95,0.00,,,0.00,0.0,WeatherDisplay:10.37,2013-07-15 06:45:00,
2013-07-15 02:50:00,64.6,63.1,30.16,West,281,0.0,0.0,95,0.00,,,0.00,0.0,WeatherDisplay:10.37,2013-07-15 06:50:00,
2013-07-15 02:55:00,64.5,63.0,30.16,West,281,0.0,0.0,95,0.00,,,0.00,0.0,WeatherDisplay:10.37,2013-07-15 06:55:00,
2013-07-15 03:00:00,64.5,63.0,30.16,West,281,0.0,0.0,95,0.00,,,0.00,0.0,WeatherDisplay:10.37,2013-07-15 07:00:00,
2013-07-15 03:05:00,64.4,62.9,30.16,West,281,0.0,0.0,95,0.00,,,0.00,0.0,WeatherDisplay:10.37,2013-07-15 07:05:00,
2013-07-15 03:10:00,64.4,63.2,30.16,West,281,0.0,0.0,96,0.00,,,0.00,0.0,WeatherDisplay:10.37,2013-07-15 07:10:00,
2013-07-15 03:15:00,64.5,63.3,30.16,West,281,0.0,0.0,96,0.00,,,0.00,0.0,WeatherDisplay:10.37,2013-07-15 07:15:00,
2013-07-15 03:20:00,64.5,63.3,30.16,West,281,0.0,0.0,96,0.00,,,0.00,0.0,WeatherDisplay:10.37,2013-07-15 07:20:00,
2013-07-15 03:25:00,64.5,63.3,30.16,West,281,0.0,0.0,96,0.00,,,0.00,0.0,WeatherDisplay:10.37,2013-07-15 07:25:00,
2013-07-15 03:30:00,64.6,63.4,30.16,West,281,0.0,0.0,96,0.00,,,0.00,0.0,WeatherDisplay:10.37,2013-07-15 07:30:00,
2013-07-15 03:35:00,64.7,63.5,30.16,West,281,0.0,0.0,96,0.00,,,0.00,0.0,WeatherDisplay:10.37,2013-07-15 07:35:00,
2013-07-15 03:40:00,64.6,63.4,30.15,West,281,0.0,0.0,96,0.00,,,0.00,0.0,WeatherDisplay:10.37,2013-07-15 07:40:00,
2013-07-15 03:45:00,64.6,63.4,30.15,West,281,0.0,0.0,96,0.00,,,0.00,0.0,WeatherDisplay:10.37,2013-07-15 07:45:00,
2013-07-15 03:50:00,64.5,63.3,30.16,West,281,0.0,0.0,96,0.00,,,0.00,0.0,WeatherDisplay:10.37,2013-07-15 07:50:00,
2013-07-15 03:55:00,64.5,63.3,30.16,West,281,0.0,0.0,96,0.00,,,0.00,0.0,WeatherDisplay:10.37,2013-07-15 07:55:00,
2013-07-15 04:00:00,64.5,63.3,30.15,West,281,0.0,0.0,96,0.00,,,0.00,0.0,WeatherDisplay:10.37,2013-07-15 08:00:00,
2013-07-15 04:05:00,64.4,63.2,30.16,West,281,0.0,0.0,96,0.00,,,0.00,0.0,WeatherDisplay:10.37,2013-07-15 08:05:00,
2013-07-15 04:10:00,64.4,63.2,30.16,West,281,0.0,0.0,96,0.00,,,0.00,0.0,WeatherDisplay:10.37,2013-07-15 08:10:00,
2013-07-15 04:15:00,64.4,63.2,30.16,West,281,0.0,0.0,96,0.00,,,0.00,0.0,WeatherDisplay:10.37,2013-07-15 08:15:00,
2013-07-15 04:20:00,64.3,63.1,30.16,West,281,0.0,0.0,96,0.00,,,0.00,0.0,WeatherDisplay:10.37,2013-07-15 08:20:00,
2013-07-15 04:25:00,64.3,63.1,30.16,West,281,0.0,0.0,96,0.00,,,0.00,0.0,WeatherDisplay:10.37,2013-07-15 08:25:00,
2013-07-15 04:30:00,64.3,63.1,30.16,West,281,0.0,0.0,96,0.00,,,0.00,0.0,WeatherDisplay:10.37,2013-07-15 08:30:00,
2013-07-15 04:35:00,64.3,63.1,30.16,West,281,0.0,0.0,96,0.00,,,0.00,0.0,WeatherDisplay:10.37,2013-07-15 08:35:00,
2013-07-15 04:40:00,64.3,63.1,30.16,West,281,0.0,0.0,96,0.00,,,0.00,0.0,WeatherDisplay:10.37,2013-07-15 08:40:00,
2013-07-15 04:45:00,64.3,63.1,30.16,West,281,0.0,0.0,96,0.00,,,0.00,0.0,WeatherDisplay:10.37,2013-07-15 08:45:00,
2013-07-15 04:50:00,64.3,63.1,30.16,West,281,0.0,0.0,96,0.00,,,0.00,0.0,WeatherDisplay:10.37,2013-07-15 08:50:00,
2013-07-15 04:55:00,64.2,63.0,30.16,West,281,0.0,0.0,96,0.00,,,0.00,0.0,WeatherDisplay:10.37,2013-07-15 08:55:00,
2013-07-15 05:00:00,64.2,63.0,30.16,West,281,0.0,0.0,96,0.00,,,0.00,0.0,WeatherDisplay:10.37,2013-07-15 09:00:00,
2013-07-15 05:05:00,64.1,62.9,30.16,West,281,0.0,0.0,96,0.00,CLR,,0.00,0.0,WeatherDisplay:10.37,2013-07-15 09:05:00,
2013-07-15 05:10:00,64.2,63.0,30.16,West,281,0.0,0.0,96,0.00,CLR,,0.00,0.0,WeatherDisplay:10.37,2013-07-15 09:10:00,
2013-07-15 05:15:00,64.2,63.0,30.16,West,281,0.0,0.0,96,0.00,CLR,,0.00,0.0,WeatherDisplay:10.37,2013-07-15 09:15:00,
2013-07-15 05:20:00,64.3,63.1,30.16,West,281,0.0,0.0,96,0.00,CLR,,0.00,0.0,WeatherDisplay:10.37,2013-07-15 09:20:00,
2013-07-15 05:25:00,64.3,63.1,30.16,West,281,0.0,0.0,96,0.00,CLR,,0.00,0.0,WeatherDisplay:10.37,2013-07-15 09:25:00,
2013-07-15 05:30:00,64.3,63.1,30.16,West,281,0.0,0.0,96,0.00,CLR,,0.00,0.0,WeatherDisplay:10.37,2013-07-15 09:30:00,
2013-07-15 05:35:00,64.3,63.1,30.16,West,281,0.0,0.0,96,0.00,CLR,,0.00,5.0,WeatherDisplay:10.37,2013-07-15 09:35:00,
2013-07-15 05:40:00,64.3,63.1,30.16,West,281,0.0,0.0,96,0.00,OVC,,0.00,9.0,WeatherDisplay:10.37,2013-07-15 09:40:00,
2013-07-15 05:45:00,64.3,63.1,30.16,West,281,0.0,0.0,96,0.00,CLR,,0.00,11.0,WeatherDisplay:10.37,2013-07-15 09:45:00,
2013-07-15 05:50:00,64.3,63.1,30.16,West,281,0.0,0.0,96,0.00,CLR,,0.00,14.0,WeatherDisplay:10.37,2013-07-15 09:50:00,
2013-07-15 05:55:00,64.3,63.4,30.16,West,281,0.0,0.0,97,0.00,CLR,,0.00,18.0,WeatherDisplay:10.37,2013-07-15 09:55:00,
2013-07-15 06:00:00,64.3,63.4,30.16,West,281,0.0,0.0,97,0.00,CLR,,0.00,42.0,WeatherDisplay:10.37,2013-07-15 10:00:00,
2013-07-15 06:05:00,64.3,63.4,30.16,West,281,0.0,0.0,97,0.00,CLR,,0.00,30.0,WeatherDisplay:10.37,2013-07-15 10:05:00,
2013-07-15 06:10:00,64.4,63.5,30.16,West,281,0.0,0.0,97,0.00,CLR,,0.00,25.0,WeatherDisplay:10.37,2013-07-15 10:10:00,
2013-07-15 06:15:00,64.5,63.6,30.16,West,281,0.0,0.0,97,0.00,CLR,,0.00,33.0,WeatherDisplay:10.37,2013-07-15 10:15:00,
2013-07-15 06:20:00,64.7,63.8,30.16,West,281,0.0,0.0,97,0.00,CLR,,0.00,30.0,WeatherDisplay:10.37,2013-07-15 10:20:00,
2013-07-15 06:25:00,64.8,63.9,30.16,West,281,0.0,0.0,97,0.00,CLR,,0.00,30.0,WeatherDisplay:10.37,2013-07-15 10:25:00,
2013-07-15 06:30:00,64.9,64.0,30.16,West,281,0.0,0.0,97,0.00,CLR,,0.00,32.0,WeatherDisplay:10.37,2013-07-15 10:30:00,
2013-07-15 06:35:00,65.0,64.1,30.16,West,281,0.0,0.0,97,0.00,CLR,,0.00,33.0,WeatherDisplay:10.37,2013-07-15 10:35:00,
2013-07-15 06:40:00,65.1,64.2,30.16,West,281,0.0,0.0,97,0.00,CLR,,0.00,33.0,WeatherDisplay:10.37,2013-07-15 10:40:00,
2013-07-15 06:45:00,65.2,64.3,30.16,West,281,0.0,0.0,97,0.00,CLR,,0.00,35.0,WeatherDisplay:10.37,2013-07-15 10:45:00,
2013-07-15 06:50:00,65.5,64.9,30.16,West,281,0.0,0.0,98,0.00,CLR,,0.00,35.0,WeatherDisplay:10.37,2013-07-15 10:50:00,
2013-07-15 06:55:00,65.8,65.2,30.16,West,281,0.0,0.0,98,0.00,CLR,,0.00,37.0,WeatherDisplay:10.37,2013-07-15 10:55:00,
2013-07-15 07:00:00,66.2,65.6,30.16,West,281,0.0,0.0,98,0.00,CLR,,0.00,39.0,WeatherDisplay:10.37,2013-07-15 11:00:00,
2013-07-15 07:05:00,66.5,65.9,30.17,West,281,0.0,0.0,98,0.00,OVC,,0.00,40.0,WeatherDisplay:10.37,2013-07-15 11:05:00,
2013-07-15 07:10:00,67.0,66.4,30.17,West,281,0.0,0.0,98,0.00,OVC,,0.00,42.0,WeatherDisplay:10.37,2013-07-15 11:10:00,
2013-07-15 07:15:00,67.4,66.8,30.17,West,281,0.0,0.0,98,0.00,OVC,,0.00,44.0,WeatherDisplay:10.37,2013-07-15 11:15:00,
2013-07-15 07:20:00,67.7,67.1,30.17,West,281,0.0,0.0,98,0.00,OVC,,0.00,44.0,WeatherDisplay:10.37,2013-07-15 11:20:00,
2013-07-15 07:25:00,68.0,67.4,30.17,West,281,0.0,0.0,98,0.00,OVC,,0.00,46.0,WeatherDisplay:10.37,2013-07-15 11:25:00,
2013-07-15 07:30:00,68.4,67.8,30.17,West,281,0.0,0.0,98,0.00,OVC,,0.00,47.0,WeatherDisplay:10.37,2013-07-15 11:30:00,
2013-07-15 07:35:00,68.7,68.1,30.17,West,281,0.0,0.0,98,0.00,OVC,,0.00,46.0,WeatherDisplay:10.37,2013-07-15 11:35:00,
2013-07-15 07:40:00,69.0,68.4,30.17,West,281,0.0,0.0,98,0.00,OVC,,0.00,51.0,WeatherDisplay:10.37,2013-07-15 11:40:00,
2013-07-15 07:45:00,69.3,68.7,30.17,West,281,0.0,0.0,98,0.00,OVC,,0.00,51.0,WeatherDisplay:10.37,2013-07-15 11:45:00,
2013-07-15 07:50:00,69.7,69.1,30.17,WNW,298,1.2,1.2,98,0.00,OVC,,0.00,51.0,WeatherDisplay:10.37,2013-07-15 11:50:00,
2013-07-15 07:55:00,70.1,69.5,30.17,NNW,348,3.5,3.5,98,0.00,OVC,,0.00,70.0,WeatherDisplay:10.37,2013-07-15 11:55:00,
2013-07-15 08:00:00,70.4,69.8,30.17,NNW,348,0.0,0.0,98,0.00,OVC,,0.00,84.0,WeatherDisplay:10.37,2013-07-15 12:00:00,
2013-07-15 08:05:00,70.7,70.1,30.17,WNW,301,2.3,2.3,98,0.00,OVC,,0.00,401.0,WeatherDisplay:10.37,2013-07-15 12:05:00,
2013-07-15 08:10:00,71.0,70.4,30.17,West,264,3.5,3.5,98,0.00,OVC,,0.00,418.0,WeatherDisplay:10.37,2013-07-15 12:10:00,
2013-07-15 08:15:00,71.2,70.6,30.17,North,360,6.0,6.0,98,0.00,OVC,,0.00,431.0,WeatherDisplay:10.37,2013-07-15 12:15:00,
2013-07-15 08:20:00,71.7,70.8,30.17,West,261,3.5,3.5,97,0.00,OVC,,0.00,454.0,WeatherDisplay:10.37,2013-07-15 12:20:00,
2013-07-15 08:25:00,72.3,71.1,30.17,NW,323,3.5,3.5,96,0.00,OVC,,0.00,475.0,WeatherDisplay:10.37,2013-07-15 12:25:00,
2013-07-15 08:30:00,72.9,71.1,30.17,West,275,5.8,5.8,94,0.00,OVC,,0.00,497.0,WeatherDisplay:10.37,2013-07-15 12:30:00,
2013-07-15 08:35:00,73.6,71.1,30.17,West,277,3.5,3.5,92,0.00,OVC,,0.00,517.0,WeatherDisplay:10.37,2013-07-15 12:35:00,
2013-07-15 08:40:00,74.1,70.6,30.17,West,261,5.8,5.8,89,0.00,OVC,,0.00,531.0,WeatherDisplay:10.37,2013-07-15 12:40:00,
2013-07-15 08:45:00,74.6,70.8,30.17,West,272,4.6,4.6,88,0.00,OVC,,0.00,545.0,WeatherDisplay:10.37,2013-07-15 12:45:00,
2013-07-15 08:50:00,75.1,71.0,30.17,WSW,254,4.6,4.6,87,0.00,OVC,,0.00,561.0,WeatherDisplay:10.37,2013-07-15 12:50:00,
2013-07-15 08:55:00,75.5,71.0,30.17,WNW,289,3.5,3.5,86,0.00,OVC,,0.00,580.0,WeatherDisplay:10.37,2013-07-15 12:55:00,
2013-07-15 09:00:00,75.7,70.9,30.17,West,277,3.5,3.5,85,0.00,OVC,,0.00,587.0,WeatherDisplay:10.37,2013-07-15 13:00:00,
2013-07-15 09:05:00,75.9,70.7,30.17,West,272,3.5,3.5,84,0.00,OVC,,0.00,612.0,WeatherDisplay:10.37,2013-07-15 13:05:00,
2013-07-15 09:10:00,76.2,71.0,30.17,West,281,7.0,7.0,84,0.00,OVC,,0.00,635.0,WeatherDisplay:10.37,2013-07-15 13:10:00,
2013-07-15 09:15:00,76.3,70.4,30.17,West,269,5.8,5.8,82,0.00,OVC,,0.00,631.0,WeatherDisplay:10.37,2013-07-15 13:15:00,
2013-07-15 09:20:00,76.4,70.9,30.17,West,279,4.6,4.6,83,0.00,OVC,,0.00,657.0,WeatherDisplay:10.37,2013-07-15 13:20:00,
2013-07-15 09:25:00,76.6,70.3,30.17,WSW,240,4.6,4.6,81,0.00,OVC,,0.00,677.0,WeatherDisplay:10.37,2013-07-15 13:25:00,
2013-07-15 09:30:00,76.9,69.9,30.16,West,263,5.8,5.8,79,0.00,OVC,,0.00,712.0,WeatherDisplay:10.37,2013-07-15 13:30:00,
2013-07-15 09:35:00,77.0,70.0,30.17,West,267,6.0,6.0,79,0.00,OVC,,0.00,705.0,WeatherDisplay:10.37,2013-07-15 13:35:00,
2013-07-15 09:40:00,77.1,69.3,30.16,West,272,4.6,4.6,77,0.00,OVC,,0.00,756.0,WeatherDisplay:10.37,2013-07-15 13:40:00,
2013-07-15 09:45:00,77.3,69.5,30.16,WSW,246,6.9,6.9,77,0.00,OVC,,0.00,731.0,WeatherDisplay:10.37,2013-07-15 13:45:00,
2013-07-15 09:50:00,77.5,69.3,30.16,WNW,285,4.6,4.6,76,0.00,OVC,,0.00,751.0,WeatherDisplay:10.37,2013-07-15 13:50:00,
2013-07-15 09:55:00,77.8,69.6,30.16,WSW,255,5.8,5.8,76,0.00,OVC,,0.00,772.0,WeatherDisplay:10.37,2013-07-15 13:55:00,
2013-07-15 10:00:00,78.1,69.5,30.16,West,278,8.1,8.1,75,0.00,OVC,,0.00,761.0,WeatherDisplay:10.37,2013-07-15 14:00:00,
2013-07-15 10:05:00,78.3,68.9,30.16,West,270,3.5,3.5,73,0.00,OVC,,0.00,777.0,WeatherDisplay:10.37,2013-07-15 14:05:00,
2013-07-15 10:10:00,78.6,69.6,30.16,West,262,3.5,3.5,74,0.00,OVC,,0.00,784.0,WeatherDisplay:10.37,2013-07-15 14:10:00,
2013-07-15 10:15:00,79.0,70.0,30.16,West,267,4.6,4.6,74,0.00,OVC,,0.00,802.0,WeatherDisplay:10.37,2013-07-15 14:15:00,
2013-07-15 10:20:00,79.4,71.2,30.16,WNW,293,5.0,5.0,76,0.00,OVC,,0.00,814.0,WeatherDisplay:10.37,2013-07-15 14:20:00,
2013-07-15 10:25:00,79.6,70.2,30.16,West,267,4.6,4.6,73,0.00,BKN,,0.00,851.0,WeatherDisplay:10.37,2013-07-15 14:25:00,
2013-07-15 10:30:00,79.7,70.3,30.16,NNE,18,3.5,3.5,73,0.00,SCT,,0.00,833.0,WeatherDisplay:10.37,2013-07-15 14:30:00,
2013-07-15 10:35:00,79.9,69.7,30.16,West,269,3.5,3.5,71,0.00,FEW,,0.00,835.0,WeatherDisplay:10.37,2013-07-15 14:35:00,
2013-07-15 10:40:00,80.2,69.5,30.16,WSW,240,5.0,5.0,70,0.00,CLR,,0.00,844.0,WeatherDisplay:10.37,2013-07-15 14:40:00,
2013-07-15 10:45:00,80.2,68.2,30.16,WNW,291,8.1,8.1,67,0.00,CLR,,0.00,856.0,WeatherDisplay:10.37,2013-07-15 14:45:00,
2013-07-15 10:50:00,80.2,68.7,30.16,WNW,291,8.1,8.1,68,0.00,CLR,,0.00,854.0,WeatherDisplay:10.37,2013-07-15 14:50:00,
2013-07-15 10:55:00,80.3,68.3,30.16,WSW,251,9.2,9.2,67,0.00,CLR,,0.00,835.0,WeatherDisplay:10.37,2013-07-15 14:55:00,
2013-07-15 11:01:00,80.3,68.8,30.15,WNW,284,3.0,0.0,68,0.00,CLR,,0.00,854.0,WeatherDisplay:10.37,2013-07-15 15:01:00,
2013-07-15 11:02:00,85.9,66.2,30.08,West,274,3.0,0.0,52,0.00,SCT,,0.00,564.0,WeatherDisplay:10.37,2013-07-15 15:02:00,
2013-07-15 11:03:00,85.9,66.2,30.08,West,274,3.0,0.0,52,0.00,SCT,,0.00,564.0,WeatherDisplay:10.37,2013-07-15 15:03:00,
2013-07-15 11:06:00,80.6,68.6,30.15,WSW,248,6.9,6.9,67,0.00,CLR,,0.00,896.0,WeatherDisplay:10.37,2013-07-15 15:06:00,
2013-07-15 11:12:00,80.7,69.2,30.15,West,269,6.9,6.9,68,0.00,CLR,,0.00,909.0,WeatherDisplay:10.37,2013-07-15 15:12:00,
2013-07-15 11:17:00,80.8,69.2,30.15,WNW,287,4.0,4.0,68,0.00,CLR,,0.00,916.0,WeatherDisplay:10.37,2013-07-15 15:17:00,
2013-07-15 11:22:00,80.9,69.3,30.15,West,269,5.8,5.8,68,0.00,CLR,,0.00,923.0,WeatherDisplay:10.37,2013-07-15 15:22:00,
2013-07-15 11:27:00,81.1,69.1,30.15,WNW,284,4.6,4.6,67,0.00,CLR,,0.00,995.0,WeatherDisplay:10.37,2013-07-15 15:27:00,
2013-07-15 11:32:00,81.4,69.4,30.15,West,272,7.0,7.0,67,0.00,CLR,,0.00,1035.0,WeatherDisplay:10.37,2013-07-15 15:32:00,
2013-07-15 11:37:00,81.7,68.3,30.15,ENE,65,5.0,5.0,64,0.00,CLR,,0.00,1086.0,WeatherDisplay:10.37,2013-07-15 15:37:00,
2013-07-15 11:42:00,81.8,68.9,30.15,West,268,5.0,5.0,65,0.00,CLR,,0.00,1074.0,WeatherDisplay:10.37,2013-07-15 15:42:00,
2013-07-15 11:48:00,81.9,68.5,30.15,NNW,338,4.6,4.6,64,0.00,CLR,,0.00,1141.0,WeatherDisplay:10.37,2013-07-15 15:48:00,
2013-07-15 11:53:00,82.1,68.7,30.15,West,260,4.6,4.6,64,0.00,CLR,,0.00,1011.0,WeatherDisplay:10.37,2013-07-15 15:53:00,
2013-07-15 11:58:00,82.3,68.9,30.15,WNW,286,6.9,6.9,64,0.00,CLR,,0.00,1076.0,WeatherDisplay:10.37,2013-07-15 15:58:00,
2013-07-15 12:03:00,82.3,69.4,30.15,ENE,70,6.9,6.9,65,0.00,CLR,,0.00,1062.0,WeatherDisplay:10.37,2013-07-15 16:03:00,
2013-07-15 12:08:00,82.6,68.7,30.15,West,264,5.8,5.8,63,0.00,CLR,,0.00,278.0,WeatherDisplay:10.37,2013-07-15 16:08:00,
2013-07-15 12:13:00,82.6,69.2,30.15,West,281,4.6,4.6,64,0.00,CLR,,0.00,1097.0,WeatherDisplay:10.37,2013-07-15 16:13:00,
2013-07-15 12:18:00,82.6,69.6,30.15,NNW,348,6.9,6.9,65,0.00,CLR,,0.00,214.0,WeatherDisplay:10.37,2013-07-15 16:18:00,
2013-07-15 12:23:00,82.5,68.6,30.15,North,355,4.6,4.6,63,0.00,CLR,,0.00,1090.0,WeatherDisplay:10.37,2013-07-15 16:23:00,
2013-07-15 12:28:00,82.7,67.4,30.14,North,355,3.5,3.5,60,0.00,CLR,,0.00,1007.0,WeatherDisplay:10.37,2013-07-15 16:28:00,
2013-07-15 12:33:00,82.8,68.4,30.14,WNW,291,9.0,9.0,62,0.00,CLR,,0.00,629.0,WeatherDisplay:10.37,2013-07-15 16:33:00,
2013-07-15 12:38:00,82.7,68.4,30.14,NW,315,5.8,5.8,62,0.00,CLR,,0.00,1021.0,WeatherDisplay:10.37,2013-07-15 16:38:00,
2013-07-15 12:43:00,82.9,68.1,30.14,North,360,3.0,3.0,61,0.00,CLR,,0.00,1090.0,WeatherDisplay:10.37,2013-07-15 16:43:00,
2013-07-15 12:48:00,83.0,68.2,30.14,NNW,347,3.5,3.5,61,0.00,CLR,,0.00,1090.0,WeatherDisplay:10.37,2013-07-15 16:48:00,
2013-07-15 12:53:00,83.3,67.0,30.14,NNE,32,4.6,4.6,58,0.00,CLR,,0.00,1009.0,WeatherDisplay:10.37,2013-07-15 16:53:00,
2013-07-15 12:59:00,83.5,67.7,30.14,West,271,4.6,4.6,59,0.00,CLR,,0.00,1018.0,WeatherDisplay:10.37,2013-07-15 16:59:00,
2013-07-15 13:04:00,83.5,69.1,30.13,West,268,7.0,7.0,62,0.00,CLR,,0.00,1018.0,WeatherDisplay:10.37,2013-07-15 17:04:00,
2013-07-15 13:09:00,83.5,68.6,30.13,NW,308,4.0,4.0,61,0.00,CLR,,0.00,1004.0,WeatherDisplay:10.37,2013-07-15 17:09:00,
2013-07-15 13:14:00,83.7,68.3,30.13,WSW,250,6.9,6.9,60,0.00,CLR,,0.00,998.0,WeatherDisplay:10.37,2013-07-15 17:14:00,
2013-07-15 13:19:00,83.7,67.8,30.13,NNE,16,8.1,8.1,59,0.00,CLR,,0.00,953.0,WeatherDisplay:10.37,2013-07-15 17:19:00,
2013-07-15 13:24:00,83.3,67.5,30.13,WSW,252,8.1,8.1,59,0.00,CLR,,0.00,1063.0,WeatherDisplay:10.37,2013-07-15 17:24:00,
2013-07-15 13:29:00,83.2,68.3,30.13,West,276,5.8,5.8,61,0.00,CLR,,0.00,1002.0,WeatherDisplay:10.37,2013-07-15 17:29:00,
2013-07-15 13:34:00,83.3,68.0,30.13,West,265,5.8,5.8,60,0.00,CLR,,0.00,1027.0,WeatherDisplay:10.37,2013-07-15 17:34:00,
2013-07-15 13:40:00,83.4,68.1,30.13,WSW,244,8.0,8.0,60,0.00,CLR,,0.00,1028.0,WeatherDisplay:10.37,2013-07-15 17:40:00,
2013-07-15 13:44:00,83.4,68.5,30.12,WNW,303,10.4,10.4,61,0.00,CLR,,0.00,995.0,WeatherDisplay:10.37,2013-07-15 17:44:00,
2013-07-15 13:50:00,83.7,68.8,30.12,West,265,5.8,5.8,61,0.00,CLR,,0.00,1025.0,WeatherDisplay:10.37,2013-07-15 17:50:00,
2013-07-15 13:55:00,84.1,68.7,30.12,WSW,251,4.6,4.6,60,0.00,CLR,,0.00,1004.0,WeatherDisplay:10.37,2013-07-15 17:55:00,
2013-07-15 14:00:00,84.2,68.8,30.12,WSW,242,5.8,5.8,60,0.00,CLR,,0.00,986.0,WeatherDisplay:10.37,2013-07-15 18:00:00,
2013-07-15 14:05:00,84.2,68.8,30.12,WSW,242,5.8,5.8,60,0.00,CLR,,0.00,986.0,WeatherDisplay:10.37,2013-07-15 18:05:00,
2013-07-15 14:11:00,84.5,69.1,30.11,SW,236,8.1,8.1,60,0.00,CLR,,0.00,1097.0,WeatherDisplay:10.37,2013-07-15 18:11:00,
2013-07-15 14:16:00,84.9,69.0,30.11,WSW,254,3.5,3.5,59,0.00,CLR,,0.00,1046.0,WeatherDisplay:10.37,2013-07-15 18:16:00,
2013-07-15 14:21:00,85.2,67.7,30.11,WSW,258,5.8,5.8,56,0.00,CLR,,0.00,1004.0,WeatherDisplay:10.37,2013-07-15 18:21:00,
2013-07-15 14:26:00,85.1,67.6,30.11,West,261,6.9,6.9,56,0.00,CLR,,0.00,974.0,WeatherDisplay:10.37,2013-07-15 18:26:00,
2013-07-15 14:31:00,85.2,67.7,30.11,North,360,8.0,8.0,56,0.00,CLR,,0.00,997.0,WeatherDisplay:10.37,2013-07-15 18:31:00,
2013-07-15 14:37:00,85.2,68.2,30.11,West,281,5.0,5.0,57,0.00,CLR,,0.00,257.0,WeatherDisplay:10.37,2013-07-15 18:37:00,
2013-07-15 14:42:00,84.8,67.4,30.11,WSW,243,6.9,6.9,56,0.00,CLR,,0.00,204.0,WeatherDisplay:10.37,2013-07-15 18:42:00,
2013-07-15 14:47:00,84.5,68.1,30.11,West,261,7.0,7.0,58,0.00,SCT,,0.00,204.0,WeatherDisplay:10.37,2013-07-15 18:47:00,
2013-07-15 14:52:00,84.1,68.7,30.11,WNW,300,6.9,6.9,60,0.00,SCT,,0.00,1034.0,WeatherDisplay:10.37,2013-07-15 18:52:00,
2013-07-15 14:57:00,84.4,69.0,30.11,West,276,4.0,4.0,60,0.00,SCT,,0.00,981.0,WeatherDisplay:10.37,2013-07-15 18:57:00,
2013-07-15 15:02:00,84.4,68.5,30.11,West,263,6.9,6.9,59,0.00,FEW,,0.00,974.0,WeatherDisplay:10.37,2013-07-15 19:02:00,
2013-07-15 15:07:00,84.7,68.3,30.11,West,266,6.9,6.9,58,0.00,CLR,,0.00,932.0,WeatherDisplay:10.37,2013-07-15 19:07:00,
2013-07-15 15:12:00,85.1,69.7,30.11,WNW,284,5.8,5.8,60,0.00,CLR,,0.00,962.0,WeatherDisplay:10.37,2013-07-15 19:12:00,
2013-07-15 15:17:00,85.2,69.3,30.11,West,277,3.5,3.5,59,0.00,CLR,,0.00,371.0,WeatherDisplay:10.37,2013-07-15 19:17:00,
2013-07-15 15:23:00,85.1,69.2,30.11,NW,321,9.2,9.2,59,0.00,FEW,,0.00,248.0,WeatherDisplay:10.37,2013-07-15 19:23:00,
2013-07-15 15:28:00,84.9,68.0,30.11,WSW,242,11.5,11.5,57,0.00,SCT,,0.00,893.0,WeatherDisplay:10.37,2013-07-15 19:28:00,
2013-07-15 15:33:00,84.8,69.4,30.11,WSW,256,9.2,9.2,60,0.00,SCT,,0.00,874.0,WeatherDisplay:10.37,2013-07-15 19:33:00,
2013-07-15 15:38:00,85.1,68.7,30.10,West,281,9.2,9.2,58,0.00,CLR,,0.00,882.0,WeatherDisplay:10.37,2013-07-15 19:38:00,
2013-07-15 15:44:00,84.8,68.4,30.10,WNW,284,11.5,11.5,58,0.00,SCT,,0.00,202.0,WeatherDisplay:10.37,2013-07-15 19:44:00,
2013-07-15 15:49:00,84.7,68.8,30.10,WSW,247,12.7,12.7,59,0.00,SCT,,0.00,891.0,WeatherDisplay:10.37,2013-07-15 19:49:00,
2013-07-15 15:54:00,84.6,68.7,30.10,NNE,12,8.1,8.1,59,0.00,SCT,,0.00,846.0,WeatherDisplay:10.37,2013-07-15 19:54:00,
2013-07-15 15:59:00,85.1,69.2,30.10,West,267,3.5,3.5,59,0.00,FEW,,0.00,824.0,WeatherDisplay:10.37,2013-07-15 19:59:00,
2013-07-15 16:04:00,85.6,69.1,30.10,WNW,299,8.0,8.0,58,0.00,FEW,,0.00,197.0,WeatherDisplay:10.37,2013-07-15 20:04:00,
2013-07-15 16:09:00,85.6,67.6,30.10,WSW,237,6.9,6.9,55,0.00,SCT,,0.00,758.0,WeatherDisplay:10.37,2013-07-15 20:09:00,
2013-07-15 16:25:00,84.6,67.2,30.10,North,355,4.6,4.6,56,0.00,OVC,,0.00,740.0,WeatherDisplay:10.37,2013-07-15 20:25:00,
2013-07-15 16:30:00,85.0,69.6,30.10,NNW,337,2.3,2.3,60,0.00,FEW,,0.00,742.0,WeatherDisplay:10.37,2013-07-15 20:30:00,
2013-07-15 16:42:00,85.8,66.7,30.10,WSW,244,6.0,6.0,53,0.00,SCT,,0.00,606.0,WeatherDisplay:10.37,2013-07-15 20:42:00,
2013-07-15 16:47:00,86.0,68.0,30.09,WSW,256,4.0,4.0,55,0.00,SCT,,0.00,656.0,WeatherDisplay:10.37,2013-07-15 20:47:00,
2013-07-15 16:52:00,85.9,67.3,30.09,West,280,5.8,5.8,54,0.00,SCT,,0.00,626.0,WeatherDisplay:10.37,2013-07-15 20:52:00,
2013-07-15 16:57:00,86.0,66.3,30.09,West,281,8.1,8.1,52,0.00,SCT,,0.00,545.0,WeatherDisplay:10.37,2013-07-15 20:57:00,
2013-07-15 17:02:00,85.9,66.8,30.08,West,277,5.8,5.8,53,0.00,SCT,,0.00,564.0,WeatherDisplay:10.37,2013-07-15 21:02:00,
2013-07-15 17:07:00,85.8,67.8,30.08,WNW,300,6.0,6.0,55,0.00,SCT,,0.00,503.0,WeatherDisplay:10.37,2013-07-15 21:07:00,
2013-07-15 17:13:00,85.6,67.0,30.08,WSW,257,5.0,5.0,54,0.00,BKN,,0.00,229.0,WeatherDisplay:10.37,2013-07-15 21:13:00,
2013-07-15 17:18:00,85.3,66.2,30.08,West,267,3.5,3.5,53,0.00,BKN,,0.00,204.0,WeatherDisplay:10.37,2013-07-15 21:18:00,
2013-07-15 17:23:00,85.2,67.2,30.08,West,261,6.9,6.9,55,0.00,BKN,,0.00,281.0,WeatherDisplay:10.37,2013-07-15 21:23:00,
2013-07-15 17:29:00,85.2,66.7,30.08,NW,319,3.5,3.5,54,0.00,BKN,,0.00,171.0,WeatherDisplay:10.37,2013-07-15 21:29:00,
2013-07-15 17:34:00,85.3,66.8,30.07,NW,322,3.5,3.5,54,0.00,BKN,,0.00,459.0,WeatherDisplay:10.37,2013-07-15 21:34:00,
2013-07-15 17:39:00,85.3,67.8,30.07,SW,233,5.0,5.0,56,0.00,BKN,,0.00,125.0,WeatherDisplay:10.37,2013-07-15 21:39:00,
2013-07-15 17:44:00,85.1,66.0,30.07,West,277,9.2,9.2,53,0.00,BKN,,0.00,325.0,WeatherDisplay:10.37,2013-07-15 21:44:00,
2013-07-15 17:49:00,85.0,67.5,30.07,West,277,3.0,3.0,56,0.00,BKN,,0.00,230.0,WeatherDisplay:10.37,2013-07-15 21:49:00,
2013-07-15 17:54:00,84.8,67.4,30.07,West,261,3.5,3.5,56,0.00,BKN,,0.00,74.0,WeatherDisplay:10.37,2013-07-15 21:54:00,
2013-07-15 17:59:00,84.7,67.3,30.07,North,350,3.0,3.0,56,0.00,BKN,,0.00,151.0,WeatherDisplay:10.37,2013-07-15 21:59:00,
2013-07-15 18:04:00,84.7,67.3,30.07,North,355,3.5,3.5,56,0.00,BKN,,0.00,67.0,WeatherDisplay:10.37,2013-07-15 22:04:00,
2013-07-15 18:09:00,84.8,66.8,30.07,West,279,3.5,3.5,55,0.00,BKN,,0.00,105.0,WeatherDisplay:10.37,2013-07-15 22:09:00,
2013-07-15 18:14:00,84.8,67.4,30.07,WSW,248,4.0,4.0,56,0.00,BKN,,0.00,144.0,WeatherDisplay:10.37,2013-07-15 22:14:00,
2013-07-15 18:19:00,84.8,68.4,30.07,NW,323,3.5,3.5,58,0.00,BKN,,0.00,153.0,WeatherDisplay:10.37,2013-07-15 22:19:00,
2013-07-15 18:24:00,84.7,67.8,30.07,WNW,284,3.5,3.5,57,0.00,BKN,,0.00,116.0,WeatherDisplay:10.37,2013-07-15 22:24:00,
2013-07-15 18:29:00,84.7,69.8,30.07,WNW,284,1.2,0.0,61,0.00,BKN,,0.00,308.0,WeatherDisplay:10.37,2013-07-15 22:29:00,
2013-07-15 18:34:00,84.8,69.4,30.06,WNW,286,2.0,2.0,60,0.00,BKN,,0.00,192.0,WeatherDisplay:10.37,2013-07-15 22:34:00,
2013-07-15 18:39:00,84.8,69.4,30.07,WNW,286,2.3,2.3,60,0.00,BKN,,0.00,258.0,WeatherDisplay:10.37,2013-07-15 22:39:00,
2013-07-15 18:44:00,84.7,69.3,30.07,WNW,286,2.0,2.0,60,0.00,BKN,,0.00,62.0,WeatherDisplay:10.37,2013-07-15 22:44:00,
2013-07-15 18:49:00,84.4,69.5,30.07,WNW,286,1.2,0.0,61,0.00,BKN,,0.00,134.0,WeatherDisplay:10.37,2013-07-15 22:49:00,
2013-07-15 18:54:00,83.9,69.5,30.07,WNW,286,2.3,0.0,62,0.00,BKN,,0.00,54.0,WeatherDisplay:10.37,2013-07-15 22:54:00,
2013-07-15 18:59:00,83.4,69.9,30.07,WNW,286,0.0,0.0,64,0.00,BKN,,0.00,63.0,WeatherDisplay:10.37,2013-07-15 22:59:00,
2013-07-15 19:04:00,82.8,68.9,30.07,WNW,286,1.2,0.0,63,0.00,BKN,,0.00,58.0,WeatherDisplay:10.37,2013-07-15 23:04:00,
2013-07-15 19:09:00,82.1,70.9,30.07,WNW,286,0.0,0.0,69,0.00,BKN,,0.00,56.0,WeatherDisplay:10.37,2013-07-15 23:09:00,
2013-07-15 19:14:00,81.8,71.1,30.08,WNW,286,0.0,0.0,70,0.00,BKN,,0.00,54.0,WeatherDisplay:10.37,2013-07-15 23:14:00,
2013-07-15 19:19:00,81.3,71.0,30.08,WNW,286,0.0,0.0,71,0.00,CLR,,0.00,44.0,WeatherDisplay:10.37,2013-07-15 23:19:00,
2013-07-15 19:24:00,80.9,71.4,30.08,WNW,286,0.0,0.0,73,0.00,CLR,,0.00,53.0,WeatherDisplay:10.37,2013-07-15 23:24:00,
2013-07-15 19:29:00,80.5,71.4,30.08,WNW,286,0.0,0.0,74,0.00,CLR,,0.00,54.0,WeatherDisplay:10.37,2013-07-15 23:29:00,
2013-07-15 19:34:00,80.1,71.5,30.08,WNW,286,0.0,0.0,75,0.00,CLR,,0.00,47.0,WeatherDisplay:10.37,2013-07-15 23:34:00,
2013-07-15 19:39:00,79.7,71.5,30.08,WNW,286,0.0,0.0,76,0.00,CLR,,0.00,37.0,WeatherDisplay:10.37,2013-07-15 23:39:00,
2013-07-15 19:44:00,79.4,71.6,30.08,WNW,286,0.0,0.0,77,0.00,BKN,,0.00,74.0,WeatherDisplay:10.37,2013-07-15 23:44:00,
2013-07-15 19:50:00,78.9,71.1,30.08,WNW,286,0.0,0.0,77,0.00,CLR,,0.00,53.0,WeatherDisplay:10.37,2013-07-15 23:50:00,
2013-07-15 19:55:00,78.5,69.5,30.08,West,270,4.0,4.0,74,0.00,CLR,,0.00,28.0,WeatherDisplay:10.37,2013-07-15 23:55:00,
2013-07-15 20:00:00,78.3,68.9,30.08,West,279,3.0,3.0,73,0.00,CLR,,0.00,21.0,WeatherDisplay:10.37,2013-07-16 00:00:00,
2013-07-15 20:05:00,78.2,68.4,30.08,West,279,3.0,3.0,72,0.00,CLR,,0.00,12.0,WeatherDisplay:10.37,2013-07-16 00:05:00,
2013-07-15 20:10:00,78.0,67.8,30.08,West,281,2.3,2.3,71,0.00,CLR,,0.00,11.0,WeatherDisplay:10.37,2013-07-16 00:10:00,
2013-07-15 20:15:00,77.9,67.7,30.08,WNW,284,4.6,4.6,71,0.00,CLR,,0.00,7.0,WeatherDisplay:10.37,2013-07-16 00:15:00,
2013-07-15 20:20:00,77.8,66.8,30.08,West,281,1.2,1.2,69,0.00,CLR,,0.00,5.0,WeatherDisplay:10.37,2013-07-16 00:20:00,
2013-07-15 20:26:00,77.7,66.7,30.08,West,281,1.0,1.0,69,0.00,CLR,,0.00,0.0,WeatherDisplay:10.37,2013-07-16 00:26:00,
2013-07-15 20:31:00,77.6,66.6,30.08,West,281,1.2,1.2,69,0.00,CLR,,0.00,0.0,WeatherDisplay:10.37,2013-07-16 00:31:00,
2013-07-15 20:36:00,77.5,66.5,30.08,West,281,1.0,1.0,69,0.00,CLR,,0.00,0.0,WeatherDisplay:10.37,2013-07-16 00:36:00,
2013-07-15 20:41:00,77.4,68.9,30.08,West,281,1.2,1.2,75,0.00,CLR,,0.00,0.0,WeatherDisplay:10.37,2013-07-16 00:41:00,
2013-07-15 20:46:00,77.1,68.9,30.09,West,281,0.0,0.0,76,0.00,CLR,,0.00,0.0,WeatherDisplay:10.37,2013-07-16 00:46:00,
2013-07-15 20:51:00,76.7,68.9,30.09,West,281,0.0,0.0,77,0.00,CLR,,0.00,0.0,WeatherDisplay:10.37,2013-07-16 00:51:00,
2013-07-15 20:57:00,76.2,66.5,30.09,West,281,2.3,2.3,72,0.00,CLR,,0.00,0.0,WeatherDisplay:10.37,2013-07-16 00:57:00,
2013-07-15 21:02:00,75.8,65.7,30.09,West,281,1.2,1.2,71,0.00,,,0.00,0.0,WeatherDisplay:10.37,2013-07-16 01:02:00,
2013-07-15 21:07:00,75.7,65.6,30.09,West,281,1.2,0.0,71,0.00,,,0.00,0.0,WeatherDisplay:10.37,2013-07-16 01:07:00,
2013-07-15 21:12:00,75.6,66.7,30.10,West,281,1.2,0.0,74,0.00,,,0.00,0.0,WeatherDisplay:10.37,2013-07-16 01:12:00,
2013-07-15 21:17:00,75.5,68.2,30.10,West,281,0.0,0.0,78,0.00,,,0.00,0.0,WeatherDisplay:10.37,2013-07-16 01:17:00,
2013-07-15 21:22:00,75.1,68.1,30.10,West,281,0.0,0.0,79,0.00,,,0.00,0.0,WeatherDisplay:10.37,2013-07-16 01:22:00,
2013-07-15 21:28:00,74.9,67.2,30.10,West,281,0.0,0.0,77,0.00,,,0.00,0.0,WeatherDisplay:10.37,2013-07-16 01:28:00,
2013-07-15 21:33:00,74.6,67.3,30.11,West,281,0.0,0.0,78,0.00,,,0.00,0.0,WeatherDisplay:10.37,2013-07-16 01:33:00,
2013-07-15 21:38:00,74.1,66.8,30.11,West,281,0.0,0.0,78,0.00,,,0.00,0.0,WeatherDisplay:10.37,2013-07-16 01:38:00,
2013-07-15 21:43:00,73.8,67.2,30.11,West,281,0.0,0.0,80,0.00,,,0.00,0.0,WeatherDisplay:10.37,2013-07-16 01:43:00,
2013-07-15 21:48:00,73.4,66.9,30.11,West,281,1.2,0.0,80,0.00,,,0.00,0.0,WeatherDisplay:10.37,2013-07-16 01:48:00,
2013-07-15 21:53:00,73.0,66.5,30.11,West,281,0.0,0.0,80,0.00,,,0.00,0.0,WeatherDisplay:10.37,2013-07-16 01:53:00,
2013-07-15 21:58:00,72.7,66.5,30.11,West,281,0.0,0.0,81,0.00,,,0.00,0.0,WeatherDisplay:10.37,2013-07-16 01:58:00,
2013-07-15 22:03:00,72.4,66.2,30.11,West,281,0.0,0.0,81,0.00,,,0.00,0.0,WeatherDisplay:10.37,2013-07-16 02:03:00,
2013-07-15 22:08:00,72.1,66.3,30.11,West,281,0.0,0.0,82,0.00,,,0.00,0.0,WeatherDisplay:10.37,2013-07-16 02:08:00,
2013-07-15 22:13:00,71.9,66.1,30.11,West,281,0.0,0.0,82,0.00,,,0.00,0.0,WeatherDisplay:10.37,2013-07-16 02:13:00,
2013-07-15 22:18:00,71.6,65.8,30.11,West,281,0.0,0.0,82,0.00,,,0.00,0.0,WeatherDisplay:10.37,2013-07-16 02:18:00,
2013-07-15 22:24:00,71.3,65.9,30.11,West,281,0.0,0.0,83,0.00,,,0.00,0.0,WeatherDisplay:10.37,2013-07-16 02:24:00,
2013-07-15 22:29:00,71.1,65.3,30.11,West,281,0.0,0.0,82,0.00,,,0.00,0.0,WeatherDisplay:10.37,2013-07-16 02:29:00,
2013-07-15 22:34:00,70.7,65.3,30.11,West,281,0.0,0.0,83,0.00,,,0.00,0.0,WeatherDisplay:10.37,2013-07-16 02:34:00,
2013-07-15 22:39:00,70.5,65.1,30.11,West,281,0.0,0.0,83,0.00,,,0.00,0.0,WeatherDisplay:10.37,2013-07-16 02:39:00,
2013-07-15 22:44:00,70.2,64.8,30.11,West,281,0.0,0.0,83,0.00,,,0.00,0.0,WeatherDisplay:10.37,2013-07-16 02:44:00,
2013-07-15 22:49:00,70.0,64.9,30.11,West,281,0.0,0.0,84,0.00,,,0.00,0.0,WeatherDisplay:10.37,2013-07-16 02:49:00,
2013-07-15 22:54:00,69.8,64.7,30.11,West,281,0.0,0.0,84,0.00,,,0.00,0.0,WeatherDisplay:10.37,2013-07-16 02:54:00,
2013-07-15 22:59:00,69.5,64.5,30.11,West,281,0.0,0.0,84,0.00,,,0.00,0.0,WeatherDisplay:10.37,2013-07-16 02:59:00,
2013-07-15 23:04:00,69.3,64.3,30.11,West,281,1.0,1.0,84,0.00,,,0.00,0.0,WeatherDisplay:10.37,2013-07-16 03:04:00,
2013-07-15 23:09:00,69.0,64.3,30.11,West,281,0.0,0.0,85,0.00,,,0.00,0.0,WeatherDisplay:10.37,2013-07-16 03:09:00,
2013-07-15 23:14:00,68.8,64.1,30.11,West,281,0.0,0.0,85,0.00,,,0.00,0.0,WeatherDisplay:10.37,2013-07-16 03:14:00,
2013-07-15 23:19:00,68.6,64.2,30.11,West,281,0.0,0.0,86,0.00,,,0.00,0.0,WeatherDisplay:10.37,2013-07-16 03:19:00,
2013-07-15 23:25:00,68.5,64.1,30.11,West,281,0.0,0.0,86,0.00,,,0.00,0.0,WeatherDisplay:10.37,2013-07-16 03:25:00,
2013-07-15 23:30:00,68.3,63.9,30.11,West,281,0.0,0.0,86,0.00,,,0.00,0.0,WeatherDisplay:10.37,2013-07-16 03:30:00,
2013-07-15 23:35:00,68.1,63.8,30.11,West,281,0.0,0.0,86,0.00,,,0.00,0.0,WeatherDisplay:10.37,2013-07-16 03:35:00,
2013-07-15 23:40:00,67.9,63.6,30.11,West,281,1.0,0.0,86,0.00,,,0.00,0.0,WeatherDisplay:10.37,2013-07-16 03:40:00,
2013-07-15 23:45:00,67.7,63.7,30.11,West,281,1.2,0.0,87,0.00,,,0.00,0.0,WeatherDisplay:10.37,2013-07-16 03:45:00,
2013-07-15 23:50:00,67.5,63.5,30.11,SSW,202,3.0,3.0,87,0.00,,,0.00,0.0,WeatherDisplay:10.37,2013-07-16 03:50:00,
2013-07-15 23:56:00,67.4,63.4,30.11,SSW,202,1.2,1.2,87,0.00,,,0.00,0.0,WeatherDisplay:10.37,2013-07-16 03:56:00,